createdAt,value
2023-01-15T00:00:26.511Z,1.00
2023-01-15T00:01:36.879Z,1.00
2023-01-15T00:02:38.653Z,1.00
2023-01-15T00:03:40.390Z,1.00
2023-01-15T00:04:42.538Z,1.00
2023-01-15T00:05:47.635Z,1.00
2023-01-15T00:06:49.603Z,1.00
2023-01-15T00:07:52.599Z,1.00
2023-01-15T00:08:57.962Z,1.00
2023-01-15T00:10:00.062Z,1.00
2023-01-15T00:11:06.191Z,1.00
2023-01-15T00:12:09.315Z,1.00
2023-01-15T00:13:11.434Z,1.00
2023-01-15T00:14:13.600Z,1.00
2023-01-15T00:15:15.858Z,1.00
2023-01-15T00:16:28.623Z,1.00
2023-01-15T00:17:33.764Z,1.00
2023-01-15T00:18:36.105Z,1.00
2023-01-15T00:19:41.074Z,1.00
2023-01-15T00:20:44.335Z,1.00
2023-01-15T00:21:46.406Z,1.00
2023-01-15T00:22:48.516Z,1.00
2023-01-15T00:24:09.648Z,1.00
2023-01-15T00:25:30.593Z,1.00
2023-01-15T00:26:51.956Z,1.00
2023-01-15T00:27:57.531Z,1.00
2023-01-15T00:28:59.896Z,1.00
2023-01-15T00:30:04.798Z,1.00
2023-01-15T00:31:09.414Z,1.00
2023-01-15T00:32:12.636Z,1.00
2023-01-15T00:33:17.241Z,1.00
2023-01-15T00:34:19.108Z,1.00
2023-01-15T00:35:23.644Z,1.00
2023-01-15T00:36:26.509Z,1.00
2023-01-15T00:37:28.528Z,1.00
2023-01-15T00:38:31.670Z,1.00
2023-01-15T00:39:34.712Z,1.00
2023-01-15T00:40:36.656Z,1.00
2023-01-15T00:41:38.815Z,1.00
2023-01-15T00:42:41.382Z,1.00
2023-01-15T00:43:44.065Z,1.00
2023-01-15T00:44:48.176Z,1.00
2023-01-15T00:45:51.608Z,1.00
2023-01-15T00:46:53.395Z,1.00
2023-01-15T00:47:55.175Z,1.00
2023-01-15T00:48:57.879Z,1.00
2023-01-15T00:49:59.737Z,1.00
2023-01-15T00:51:02.358Z,1.00
2023-01-15T00:52:04.228Z,1.00
2023-01-15T00:53:06.090Z,1.00
2023-01-15T00:54:07.980Z,1.00
2023-01-15T00:55:10.395Z,1.00
2023-01-15T00:56:12.239Z,1.00
2023-01-15T00:57:14.045Z,1.00
2023-01-15T00:58:18.428Z,1.00
2023-01-15T00:59:20.569Z,1.00
2023-01-15T01:00:22.593Z,1.00
2023-01-15T01:01:28.760Z,1.00
2023-01-15T01:02:30.579Z,1.00
2023-01-15T01:03:32.866Z,1.00
2023-01-15T01:04:35.759Z,1.00
2023-01-15T01:05:38.196Z,1.00
2023-01-15T01:06:39.880Z,1.00
2023-01-15T01:07:41.595Z,1.00
2023-01-15T01:08:46.194Z,1.00
2023-01-15T01:09:48.818Z,1.00
2023-01-15T01:10:50.586Z,1.00
2023-01-15T01:11:53.559Z,1.00
2023-01-15T01:12:59.811Z,1.00
2023-01-15T01:14:02.718Z,1.00
2023-01-15T01:15:05.206Z,1.00
2023-01-15T01:16:25.903Z,1.00
2023-01-15T01:17:29.385Z,1.00
2023-01-15T01:18:31.464Z,1.00
2023-01-15T01:19:33.375Z,1.00
2023-01-15T01:20:40.851Z,1.00
2023-01-15T01:21:44.040Z,1.00
2023-01-15T01:22:51.046Z,1.00
2023-01-15T01:23:53.422Z,1.00
2023-01-15T01:24:55.147Z,1.00
2023-01-15T01:25:58.180Z,1.00
2023-01-15T01:27:00.013Z,1.00
2023-01-15T01:28:01.759Z,1.00
2023-01-15T01:29:05.221Z,1.00
2023-01-15T01:30:07.708Z,1.00
2023-01-15T01:31:10.080Z,1.00
2023-01-15T01:32:12.096Z,1.00
2023-01-15T01:33:14.033Z,1.00
2023-01-15T01:34:15.834Z,1.00
2023-01-15T01:35:17.718Z,1.00
2023-01-15T01:36:20.302Z,1.00
2023-01-15T01:37:22.142Z,1.00
2023-01-15T01:38:23.968Z,1.00
2023-01-15T01:39:26.176Z,1.00
2023-01-15T01:40:28.387Z,1.00
2023-01-15T01:41:30.514Z,1.00
2023-01-15T01:42:32.586Z,1.00
2023-01-15T01:43:56.138Z,1.00
2023-01-15T01:45:14.012Z,1.00
2023-01-15T01:46:16.335Z,1.00
2023-01-15T01:47:26.403Z,1.00
2023-01-15T01:48:33.914Z,1.00
2023-01-15T01:49:40.843Z,1.00
2023-01-15T01:50:44.794Z,1.00
2023-01-15T01:51:53.679Z,1.00
2023-01-15T01:53:25.366Z,1.00
2023-01-15T01:54:29.491Z,1.00
2023-01-15T01:55:33.899Z,1.00
2023-01-15T01:56:38.005Z,1.00
2023-01-15T01:57:42.844Z,1.00
2023-01-15T01:58:50.527Z,1.00
2023-01-15T01:59:52.827Z,1.00
2023-01-15T02:00:55.009Z,1.00
2023-01-15T02:01:57.635Z,1.00
2023-01-15T02:03:01.368Z,1.00
2023-01-15T02:04:06.537Z,1.00
2023-01-15T02:05:09.678Z,1.00
2023-01-15T02:06:16.701Z,1.00
2023-01-15T02:07:18.434Z,1.00
2023-01-15T02:08:24.336Z,1.00
2023-01-15T02:09:26.205Z,1.00
2023-01-15T02:10:28.804Z,1.00
2023-01-15T02:11:32.164Z,1.00
2023-01-15T02:12:38.351Z,1.00
2023-01-15T02:14:19.736Z,1.00
2023-01-15T02:15:33.971Z,1.00
2023-01-15T02:16:43.486Z,1.00
2023-01-15T02:18:26.794Z,1.00
2023-01-15T02:19:59.796Z,1.00
2023-01-15T02:21:58.436Z,1.00
2023-01-15T02:23:02.875Z,1.00
2023-01-15T02:24:04.716Z,1.00
2023-01-15T02:25:28.519Z,1.00
2023-01-15T02:26:59.920Z,1.00
2023-01-15T02:28:12.379Z,1.00
2023-01-15T02:29:24.115Z,1.00
2023-01-15T02:30:30.634Z,1.00
2023-01-15T02:31:38.695Z,1.00
2023-01-15T02:32:54.171Z,1.00
2023-01-15T02:34:06.539Z,1.00
2023-01-15T02:35:18.195Z,1.00
2023-01-15T02:36:23.938Z,1.00
2023-01-15T02:37:30.568Z,1.00
2023-01-15T02:38:43.756Z,1.00
2023-01-15T02:39:49.711Z,1.00
2023-01-15T02:40:56.475Z,1.00
2023-01-15T02:42:03.226Z,1.00
2023-01-15T02:43:07.896Z,1.00
2023-01-15T02:44:13.387Z,1.00
2023-01-15T02:45:24.465Z,1.00
2023-01-15T02:46:30.756Z,1.00
2023-01-15T02:47:36.796Z,1.00
2023-01-15T02:48:41.308Z,1.00
2023-01-15T02:49:44.483Z,1.00
2023-01-15T02:50:51.762Z,1.00
2023-01-15T02:52:02.499Z,1.00
2023-01-15T02:53:09.853Z,1.00
2023-01-15T02:54:15.670Z,1.00
2023-01-15T02:55:31.118Z,1.00
2023-01-15T02:56:36.130Z,1.00
2023-01-15T02:57:39.951Z,1.00
2023-01-15T02:58:44.202Z,1.00
2023-01-15T02:59:48.947Z,1.00
2023-01-15T03:00:54.714Z,1.00
2023-01-15T03:02:02.499Z,1.00
2023-01-15T03:03:41.878Z,1.00
2023-01-15T03:04:52.132Z,1.00
2023-01-15T03:06:05.851Z,1.00
2023-01-15T03:07:19.476Z,1.00
2023-01-15T03:08:21.377Z,1.00
2023-01-15T03:09:25.512Z,1.00
2023-01-15T03:11:02.654Z,1.00
2023-01-15T03:12:22.458Z,1.00
2023-01-15T03:13:34.938Z,1.00
2023-01-15T03:14:56.790Z,1.00
2023-01-15T03:16:36.041Z,1.00
2023-01-15T03:17:47.543Z,1.00
2023-01-15T03:19:13.914Z,1.10
2023-01-15T03:20:23.213Z,1.50
2023-01-15T03:21:31.851Z,1.40
2023-01-15T03:22:44.305Z,1.30
2023-01-15T03:23:51.173Z,1.40
2023-01-15T03:25:13.326Z,1.50
2023-01-15T03:26:15.101Z,1.70
2023-01-15T03:27:18.779Z,1.40
2023-01-15T03:28:26.271Z,1.30
2023-01-15T03:29:34.833Z,1.30
2023-01-15T03:30:36.737Z,1.20
2023-01-15T03:31:38.735Z,1.30
2023-01-15T03:32:40.932Z,1.00
2023-01-15T03:33:43.346Z,1.00
2023-01-15T03:34:51.899Z,1.00
2023-01-15T03:36:02.580Z,1.00
2023-01-15T03:37:04.640Z,1.00
2023-01-15T03:38:06.543Z,1.00
2023-01-15T03:39:11.545Z,1.00
2023-01-15T03:40:14.878Z,1.00
2023-01-15T03:41:47.344Z,1.00
2023-01-15T03:43:23.274Z,1.00
2023-01-15T03:44:43.197Z,1.00
2023-01-15T03:45:47.055Z,1.10
2023-01-15T03:46:55.077Z,1.00
2023-01-15T03:48:12.395Z,1.00
2023-01-15T03:49:23.075Z,1.00
2023-01-15T03:50:49.683Z,1.00
2023-01-15T03:52:19.251Z,1.00
2023-01-15T03:53:25.586Z,1.00
2023-01-15T03:55:16.098Z,1.00
2023-01-15T03:56:32.783Z,1.00
2023-01-15T03:57:42.347Z,1.00
2023-01-15T03:58:49.792Z,1.00
2023-01-15T03:59:57.229Z,1.00
2023-01-15T04:01:03.041Z,1.00
2023-01-15T04:02:08.817Z,1.00
2023-01-15T04:03:12.415Z,1.00
2023-01-15T04:04:15.574Z,1.00
2023-01-15T04:05:19.440Z,1.00
2023-01-15T04:06:23.205Z,1.00
2023-01-15T04:07:25.885Z,1.00
2023-01-15T04:08:31.585Z,1.00
2023-01-15T04:09:39.291Z,1.00
2023-01-15T04:11:01.085Z,1.00
2023-01-15T04:12:02.794Z,1.00
2023-01-15T04:13:06.056Z,1.00
2023-01-15T04:14:09.219Z,1.00
2023-01-15T04:15:12.421Z,1.00
2023-01-15T04:16:24.209Z,1.00
2023-01-15T04:17:26.087Z,1.00
2023-01-15T04:18:27.865Z,1.00
2023-01-15T04:19:29.723Z,1.00
2023-01-15T04:20:31.398Z,1.00
2023-01-15T04:21:33.205Z,1.00
2023-01-15T04:22:36.427Z,1.00
2023-01-15T04:23:39.520Z,1.00
2023-01-15T04:24:41.351Z,1.00
2023-01-15T04:25:43.307Z,1.00
2023-01-15T04:26:44.989Z,1.00
2023-01-15T04:27:46.694Z,1.00
2023-01-15T04:28:49.194Z,1.00
2023-01-15T04:29:50.879Z,1.00
2023-01-15T04:30:52.832Z,1.00
2023-01-15T04:31:57.606Z,1.00
2023-01-15T04:32:59.655Z,1.00
2023-01-15T04:34:03.716Z,1.00
2023-01-15T04:35:05.856Z,1.00
2023-01-15T04:36:11.327Z,1.00
2023-01-15T04:37:15.498Z,1.00
2023-01-15T04:38:18.115Z,1.00
2023-01-15T04:39:19.965Z,1.00
2023-01-15T04:40:40.113Z,1.00
2023-01-15T04:42:00.228Z,1.00
2023-01-15T04:43:20.632Z,1.00
2023-01-15T04:44:27.658Z,1.00
2023-01-15T04:45:29.422Z,1.00
2023-01-15T04:46:35.113Z,1.00
2023-01-15T04:47:40.839Z,1.00
2023-01-15T04:48:42.875Z,1.00
2023-01-15T04:49:45.625Z,1.00
2023-01-15T04:50:47.274Z,1.00
2023-01-15T04:51:49.052Z,1.00
2023-01-15T04:52:51.112Z,1.00
2023-01-15T04:53:53.845Z,1.00
2023-01-15T04:54:56.083Z,1.00
2023-01-15T04:56:02.310Z,1.00
2023-01-15T04:57:04.074Z,1.00
2023-01-15T04:58:05.960Z,1.00
2023-01-15T04:59:08.514Z,1.00
2023-01-15T05:00:10.949Z,1.00
2023-01-15T05:01:14.454Z,1.00
2023-01-15T05:02:17.488Z,1.00
2023-01-15T05:03:19.414Z,1.00
2023-01-15T05:04:22.130Z,1.00
2023-01-15T05:05:24.065Z,1.00
2023-01-15T05:06:33.724Z,1.00
2023-01-15T05:07:35.438Z,1.00
2023-01-15T05:08:37.440Z,1.00
2023-01-15T05:09:39.200Z,1.00
2023-01-15T05:10:40.885Z,1.00
2023-01-15T05:11:42.890Z,1.00
2023-01-15T05:12:44.564Z,1.00
2023-01-15T05:13:46.372Z,1.00
2023-01-15T05:14:49.234Z,1.00
2023-01-15T05:15:50.957Z,1.00
2023-01-15T05:16:55.642Z,1.00
2023-01-15T05:17:57.361Z,1.00
2023-01-15T05:19:08.042Z,1.00
2023-01-15T05:20:10.699Z,1.00
2023-01-15T05:21:25.358Z,1.00
2023-01-15T05:22:27.443Z,1.00
2023-01-15T05:23:30.348Z,1.00
2023-01-15T05:24:32.223Z,1.00
2023-01-15T05:25:37.199Z,2.80
2023-01-15T05:26:38.891Z,3.50
2023-01-15T05:27:41.133Z,4.90
2023-01-15T05:28:43.025Z,5.90
2023-01-15T05:29:44.754Z,6.70
2023-01-15T05:30:46.828Z,6.80
2023-01-15T05:31:48.704Z,7.70
2023-01-15T05:32:50.543Z,8.80
2023-01-15T05:33:53.397Z,9.20
2023-01-15T05:34:55.255Z,9.70
2023-01-15T05:36:01.720Z,9.70
2023-01-15T05:37:03.436Z,10.00
2023-01-15T05:38:07.424Z,10.50
2023-01-15T05:39:10.446Z,11.70
2023-01-15T05:40:12.456Z,12.20
2023-01-15T05:41:38.062Z,12.70
2023-01-15T05:42:39.931Z,12.80
2023-01-15T05:43:41.889Z,13.30
2023-01-15T05:44:44.285Z,13.80
2023-01-15T05:45:46.194Z,13.70
2023-01-15T05:46:49.262Z,14.10
2023-01-15T05:47:54.787Z,15.10
2023-01-15T05:49:02.654Z,15.10
2023-01-15T05:50:07.497Z,14.00
2023-01-15T05:51:09.269Z,13.70
2023-01-15T05:52:11.110Z,14.60
2023-01-15T05:53:12.859Z,13.70
2023-01-15T05:54:19.049Z,13.40
2023-01-15T05:55:20.700Z,13.30
2023-01-15T05:56:22.547Z,13.40
2023-01-15T05:57:24.406Z,13.00
2023-01-15T05:58:27.417Z,13.40
2023-01-15T05:59:32.119Z,12.20
2023-01-15T06:00:34.043Z,12.40
2023-01-15T06:01:36.791Z,12.40
2023-01-15T06:02:38.719Z,12.30
2023-01-15T06:03:42.079Z,11.80
2023-01-15T06:04:43.955Z,11.70
2023-01-15T06:05:51.212Z,11.40
2023-01-15T06:06:54.912Z,11.10
2023-01-15T06:07:57.008Z,11.40
2023-01-15T06:08:59.491Z,10.60
2023-01-15T06:10:02.205Z,10.70
2023-01-15T06:11:03.911Z,10.70
2023-01-15T06:12:05.996Z,9.50
2023-01-15T06:13:07.710Z,9.90
2023-01-15T06:14:12.527Z,9.50
2023-01-15T06:15:15.063Z,9.50
2023-01-15T06:16:16.977Z,9.50
2023-01-15T06:17:19.133Z,9.50
2023-01-15T06:18:20.983Z,9.40
2023-01-15T06:19:22.698Z,9.70
2023-01-15T06:20:27.413Z,9.30
2023-01-15T06:21:29.339Z,8.30
2023-01-15T06:22:31.013Z,7.70
2023-01-15T06:23:37.267Z,8.00
2023-01-15T06:24:40.214Z,6.70
2023-01-15T06:25:42.043Z,7.80
2023-01-15T06:26:46.334Z,8.70
2023-01-15T06:27:49.674Z,8.30
2023-01-15T06:28:51.903Z,8.40
2023-01-15T06:29:54.161Z,8.80
2023-01-15T06:30:56.164Z,8.60
2023-01-15T06:31:58.135Z,8.50
2023-01-15T06:33:00.109Z,8.40
2023-01-15T06:34:02.353Z,7.60
2023-01-15T06:35:04.576Z,7.20
2023-01-15T06:36:23.755Z,7.20
2023-01-15T06:37:25.564Z,7.90
2023-01-15T06:38:27.233Z,7.50
2023-01-15T06:39:28.937Z,8.20
2023-01-15T06:40:30.921Z,8.10
2023-01-15T06:41:51.712Z,8.60
2023-01-15T06:43:12.008Z,7.60
2023-01-15T06:44:35.279Z,6.90
2023-01-15T06:46:00.196Z,7.10
2023-01-15T06:47:26.682Z,7.50
2023-01-15T06:48:31.622Z,8.60
2023-01-15T06:49:37.440Z,9.20
2023-01-15T06:50:39.183Z,9.20
2023-01-15T06:51:40.951Z,9.40
2023-01-15T06:52:42.692Z,9.10
2023-01-15T06:53:44.799Z,9.10
2023-01-15T06:54:46.819Z,8.80
2023-01-15T06:55:51.809Z,8.70
2023-01-15T06:56:53.503Z,8.90
2023-01-15T06:57:55.388Z,9.60
2023-01-15T06:58:57.323Z,9.50
2023-01-15T06:59:59.268Z,9.00
2023-01-15T07:01:01.194Z,9.00
2023-01-15T07:02:03.143Z,9.70
2023-01-15T07:03:05.666Z,9.70
2023-01-15T07:04:10.055Z,10.20
2023-01-15T07:05:11.958Z,9.50
2023-01-15T07:06:13.901Z,9.90
2023-01-15T07:07:19.770Z,9.90
2023-01-15T07:08:21.616Z,8.20
2023-01-15T07:09:23.430Z,9.50
2023-01-15T07:10:25.422Z,9.50
2023-01-15T07:11:27.555Z,9.50
2023-01-15T07:12:30.529Z,9.50
2023-01-15T07:13:32.725Z,9.50
2023-01-15T07:14:37.294Z,9.20
2023-01-15T07:15:39.975Z,7.10
2023-01-15T07:16:41.695Z,7.20
2023-01-15T07:17:43.750Z,6.20
2023-01-15T07:18:45.443Z,7.40
2023-01-15T07:19:47.571Z,7.00
2023-01-15T07:20:49.402Z,7.20
2023-01-15T07:21:51.260Z,6.70
2023-01-15T07:22:53.270Z,7.90
2023-01-15T07:23:59.625Z,8.50
2023-01-15T07:25:01.683Z,7.70
2023-01-15T07:26:03.669Z,7.10
2023-01-15T07:27:06.794Z,8.00
2023-01-15T07:28:08.525Z,8.10
2023-01-15T07:29:10.500Z,7.30
2023-01-15T07:30:12.968Z,8.10
2023-01-15T07:31:14.804Z,6.90
2023-01-15T07:32:16.862Z,7.50
2023-01-15T07:33:18.846Z,8.00
2023-01-15T07:34:21.077Z,7.90
2023-01-15T07:35:23.319Z,7.20
2023-01-15T07:36:26.107Z,7.10
2023-01-15T07:37:28.681Z,7.40
2023-01-15T07:38:30.615Z,7.70
2023-01-15T07:39:32.852Z,7.50
2023-01-15T07:40:34.529Z,7.90
2023-01-15T07:41:55.375Z,7.60
2023-01-15T07:43:16.150Z,7.70
2023-01-15T07:44:38.056Z,7.50
2023-01-15T07:46:01.635Z,8.10
2023-01-15T07:47:22.265Z,6.50
2023-01-15T07:48:45.440Z,7.30
2023-01-15T07:49:49.427Z,6.50
2023-01-15T07:50:51.123Z,6.50
2023-01-15T07:51:52.777Z,6.40
2023-01-15T07:52:54.445Z,6.70
2023-01-15T07:53:56.137Z,6.60
2023-01-15T07:54:57.923Z,6.60
2023-01-15T07:56:00.437Z,5.60
2023-01-15T07:57:02.829Z,5.60
2023-01-15T07:58:04.662Z,5.00
2023-01-15T07:59:06.581Z,4.00
2023-01-15T08:00:14.141Z,5.00
2023-01-15T08:01:17.123Z,5.40
2023-01-15T08:02:19.027Z,5.70
2023-01-15T08:03:20.941Z,5.60
2023-01-15T08:04:23.107Z,4.50
2023-01-15T08:05:25.414Z,4.90
2023-01-15T08:06:27.130Z,5.40
2023-01-15T08:07:29.061Z,4.80
2023-01-15T08:08:30.939Z,4.10
2023-01-15T08:09:36.036Z,4.40
2023-01-15T08:10:57.896Z,5.20
2023-01-15T08:12:19.077Z,5.30
2023-01-15T08:13:39.341Z,5.20
2023-01-15T08:14:59.805Z,4.80
2023-01-15T08:16:01.604Z,3.90
2023-01-15T08:17:03.887Z,5.00
2023-01-15T08:18:06.836Z,3.20
2023-01-15T08:19:08.687Z,4.40
2023-01-15T08:20:17.128Z,4.00
2023-01-15T08:21:19.757Z,3.30
2023-01-15T08:22:21.578Z,3.90
2023-01-15T08:23:23.636Z,2.90
2023-01-15T08:24:25.426Z,3.10
2023-01-15T08:25:27.157Z,3.50
2023-01-15T08:26:28.852Z,2.80
2023-01-15T08:27:32.731Z,3.60
2023-01-15T08:28:35.152Z,4.00
2023-01-15T08:29:37.287Z,4.30
2023-01-15T08:30:40.076Z,4.30
2023-01-15T08:31:42.106Z,4.50
2023-01-15T08:32:43.978Z,2.80
2023-01-15T08:33:45.834Z,1.60
2023-01-15T08:34:47.708Z,2.70
2023-01-15T08:35:49.527Z,3.80
2023-01-15T08:36:57.173Z,4.20
2023-01-15T08:37:59.425Z,3.00
2023-01-15T08:39:01.614Z,2.20
2023-01-15T08:40:03.892Z,1.90
2023-01-15T08:41:07.039Z,1.70
2023-01-15T08:42:10.248Z,2.10
2023-01-15T08:43:11.968Z,2.60
2023-01-15T08:44:13.919Z,1.90
2023-01-15T08:45:15.959Z,2.40
2023-01-15T08:46:18.018Z,2.50
2023-01-15T08:47:21.080Z,2.80
2023-01-15T08:48:22.966Z,3.30
2023-01-15T08:49:25.112Z,3.50
2023-01-15T08:50:26.832Z,3.90
2023-01-15T08:51:28.667Z,3.30
2023-01-15T08:52:30.505Z,3.30
2023-01-15T08:53:32.586Z,2.70
2023-01-15T08:54:34.656Z,3.30
2023-01-15T08:55:38.799Z,2.80
2023-01-15T08:56:40.849Z,2.90
2023-01-15T08:57:44.533Z,3.50
2023-01-15T08:58:47.564Z,4.00
2023-01-15T08:59:49.372Z,3.60
2023-01-15T09:00:51.077Z,1.80
2023-01-15T09:01:52.939Z,2.30
2023-01-15T09:02:54.812Z,2.70
2023-01-15T09:03:57.027Z,2.70
2023-01-15T09:04:58.888Z,2.50
2023-01-15T09:06:02.561Z,3.60
2023-01-15T09:07:04.708Z,3.60
2023-01-15T09:08:07.256Z,3.50
2023-01-15T09:09:10.226Z,2.70
2023-01-15T09:10:12.070Z,2.50
2023-01-15T09:11:13.923Z,2.40
2023-01-15T09:12:15.962Z,2.90
2023-01-15T09:13:21.025Z,1.80
2023-01-15T09:15:00.133Z,2.10
2023-01-15T09:15:49.715Z,1.40
2023-01-15T09:16:51.486Z,2.30
2023-01-15T09:17:53.640Z,2.10
2023-01-15T09:18:58.352Z,1.70
2023-01-15T09:20:00.592Z,2.00
2023-01-15T09:21:02.324Z,1.60
2023-01-15T09:22:04.191Z,2.10
2023-01-15T09:23:05.975Z,2.20
2023-01-15T09:24:09.698Z,1.60
2023-01-15T09:25:16.639Z,2.00
2023-01-15T09:26:32.211Z,2.60
2023-01-15T09:27:37.409Z,2.60
2023-01-15T09:28:39.465Z,2.30
2023-01-15T09:29:41.334Z,2.50
2023-01-15T09:30:43.573Z,2.90
2023-01-15T09:31:45.569Z,2.10
2023-01-15T09:32:47.760Z,2.20
2023-01-15T09:33:49.608Z,1.90
2023-01-15T09:34:52.925Z,1.50
2023-01-15T09:35:54.600Z,2.00
2023-01-15T09:36:56.555Z,2.00
2023-01-15T09:37:58.293Z,1.70
2023-01-15T09:39:02.236Z,1.70
2023-01-15T09:40:08.707Z,1.30
2023-01-15T09:41:35.053Z,1.00
2023-01-15T09:43:04.901Z,1.00
2023-01-15T09:44:28.852Z,1.00
2023-01-15T09:45:50.132Z,1.00
2023-01-15T09:47:20.164Z,1.00
2023-01-15T09:48:37.493Z,1.40
2023-01-15T09:50:01.017Z,1.00
2023-01-15T09:51:16.624Z,1.00
2023-01-15T09:52:30.764Z,1.50
2023-01-15T09:54:06.056Z,1.60
2023-01-15T09:55:29.642Z,1.40
2023-01-15T09:56:34.988Z,1.70
2023-01-15T09:57:37.263Z,1.50
2023-01-15T09:58:41.013Z,1.50
2023-01-15T09:59:46.421Z,1.00
2023-01-15T10:00:50.625Z,1.30
2023-01-15T10:01:53.850Z,1.00
2023-01-15T10:03:02.008Z,1.00
2023-01-15T10:04:13.016Z,1.00
2023-01-15T10:05:29.290Z,1.00
2023-01-15T10:06:55.475Z,1.00
2023-01-15T10:08:06.613Z,1.20
2023-01-15T10:09:51.277Z,1.30
2023-01-15T10:11:04.349Z,1.00
2023-01-15T10:12:35.671Z,1.00
2023-01-15T10:14:00.611Z,1.00
2023-01-15T10:15:14.456Z,1.20
2023-01-15T10:16:26.023Z,2.10
2023-01-15T10:17:43.045Z,1.20
2023-01-15T10:18:45.993Z,1.00
2023-01-15T10:19:48.221Z,1.00
2023-01-15T10:21:05.126Z,1.00
2023-01-15T10:22:27.961Z,1.00
2023-01-15T10:23:53.045Z,1.00
2023-01-15T10:24:58.785Z,1.00
2023-01-15T10:26:05.445Z,1.00
2023-01-15T10:27:22.130Z,1.00
2023-01-15T10:28:31.843Z,1.00
2023-01-15T10:29:49.332Z,1.30
2023-01-15T10:30:54.884Z,1.30
2023-01-15T10:32:21.907Z,1.30
2023-01-15T10:33:44.492Z,1.30
2023-01-15T10:35:20.017Z,1.20
2023-01-15T10:36:45.745Z,2.40
2023-01-15T10:38:07.880Z,1.70
2023-01-15T10:39:21.493Z,1.80
2023-01-15T10:40:46.373Z,2.30
2023-01-15T10:42:14.125Z,2.00
2023-01-15T10:43:43.311Z,2.40
2023-01-15T10:45:13.321Z,2.10
2023-01-15T10:46:22.350Z,1.00
2023-01-15T10:47:32.679Z,1.10
2023-01-15T10:48:57.444Z,1.80
2023-01-15T10:50:01.858Z,1.00
2023-01-15T10:51:13.671Z,1.00
2023-01-15T10:52:34.800Z,1.00
2023-01-15T10:53:44.627Z,1.50
2023-01-15T10:54:50.426Z,2.00
2023-01-15T10:56:00.246Z,1.60
2023-01-15T10:57:36.610Z,1.30
2023-01-15T10:58:45.800Z,1.20
2023-01-15T10:59:55.981Z,1.50
2023-01-15T11:01:04.995Z,1.70
2023-01-15T11:02:39.877Z,1.60
2023-01-15T11:03:44.615Z,2.00
2023-01-15T11:04:47.133Z,2.70
2023-01-15T11:05:49.833Z,3.00
2023-01-15T11:06:52.906Z,3.10
2023-01-15T11:08:48.226Z,2.30
2023-01-15T11:09:45.530Z,3.10
2023-01-15T11:10:50.376Z,3.40
2023-01-15T11:12:00.737Z,1.60
2023-01-15T11:13:32.424Z,2.30
2023-01-15T11:14:57.472Z,3.00
2023-01-15T11:16:18.246Z,2.70
2023-01-15T11:17:39.984Z,3.20
2023-01-15T11:19:02.724Z,2.30
2023-01-15T11:20:18.424Z,1.50
2023-01-15T11:21:23.019Z,1.70
2023-01-15T11:22:28.961Z,2.00
2023-01-15T11:23:35.906Z,1.50
2023-01-15T11:24:45.614Z,1.00
2023-01-15T11:25:56.745Z,1.50
2023-01-15T11:26:58.556Z,2.40
2023-01-15T11:28:05.304Z,2.30
2023-01-15T11:29:32.607Z,3.00
2023-01-15T11:30:40.331Z,1.90
2023-01-15T11:31:42.293Z,2.40
2023-01-15T11:32:54.381Z,1.00
2023-01-15T11:34:01.570Z,1.80
2023-01-15T11:35:09.241Z,2.20
2023-01-15T11:36:23.813Z,1.70
2023-01-15T11:37:27.956Z,2.50
2023-01-15T11:38:42.267Z,2.50
2023-01-15T11:39:53.391Z,2.60
2023-01-15T11:41:01.572Z,3.50
2023-01-15T11:42:34.253Z,3.90
2023-01-15T11:43:55.194Z,2.50
2023-01-15T11:45:17.047Z,2.80
2023-01-15T11:46:48.749Z,3.30
2023-01-15T11:48:12.699Z,2.70
2023-01-15T11:49:40.277Z,2.90
2023-01-15T11:51:00.955Z,2.60
2023-01-15T11:52:05.009Z,2.90
2023-01-15T11:53:18.592Z,1.20
2023-01-15T11:54:20.649Z,2.50
2023-01-15T11:55:25.645Z,3.30
2023-01-15T11:56:31.537Z,3.70
2023-01-15T11:57:37.618Z,3.00
2023-01-15T11:58:50.540Z,3.70
2023-01-15T11:59:53.968Z,3.70
2023-01-15T12:00:59.731Z,3.80
2023-01-15T12:02:17.474Z,3.90
2023-01-15T12:03:22.116Z,3.50
2023-01-15T12:04:35.646Z,3.10
2023-01-15T12:05:43.572Z,1.80
2023-01-15T12:06:45.455Z,2.30
2023-01-15T12:07:49.924Z,2.30
2023-01-15T12:09:02.189Z,1.80
2023-01-15T12:10:11.376Z,2.00
2023-01-15T12:11:27.089Z,2.50
2023-01-15T12:13:02.587Z,2.30
2023-01-15T12:14:34.736Z,1.60
2023-01-15T12:15:59.144Z,1.00
2023-01-15T12:17:46.374Z,1.00
2023-01-15T12:19:16.024Z,1.00
2023-01-15T12:20:37.488Z,1.00
2023-01-15T12:21:39.082Z,1.00
2023-01-15T12:23:13.553Z,1.00
2023-01-15T12:24:49.493Z,1.00
2023-01-15T12:26:17.600Z,1.00
2023-01-15T12:27:24.888Z,1.00
2023-01-15T12:28:45.531Z,1.00
2023-01-15T12:29:54.534Z,1.00
2023-01-15T12:31:11.608Z,1.00
2023-01-15T12:32:39.908Z,1.00
2023-01-15T12:34:01.634Z,1.00
2023-01-15T12:35:11.002Z,1.00
2023-01-15T12:36:19.477Z,1.00
2023-01-15T12:37:29.047Z,1.00
2023-01-15T12:38:48.673Z,1.00
2023-01-15T12:40:02.442Z,1.00
2023-01-15T12:41:50.601Z,1.00
2023-01-15T12:43:14.923Z,1.00
2023-01-15T12:44:40.291Z,1.00
2023-01-15T12:45:49.698Z,1.00
2023-01-15T12:46:52.156Z,1.00
2023-01-15T12:48:00.811Z,1.00
2023-01-15T12:49:34.681Z,1.00
2023-01-15T12:50:46.937Z,1.00
2023-01-15T12:52:03.927Z,1.00
2023-01-15T12:53:30.546Z,1.00
2023-01-15T12:54:41.817Z,1.00
2023-01-15T12:55:51.703Z,1.00
2023-01-15T12:57:17.679Z,1.00
2023-01-15T12:58:46.902Z,1.00
2023-01-15T13:00:01.661Z,1.00
2023-01-15T13:01:24.365Z,1.00
2023-01-15T13:02:52.484Z,1.00
2023-01-15T13:04:00.778Z,1.00
2023-01-15T13:05:22.355Z,1.00
2023-01-15T13:06:28.475Z,1.00
2023-01-15T13:08:02.439Z,1.00
2023-01-15T13:09:14.512Z,1.00
2023-01-15T13:10:24.662Z,1.00
2023-01-15T13:11:28.435Z,1.00
2023-01-15T13:12:30.949Z,1.00
2023-01-15T13:13:40.979Z,1.00
2023-01-15T13:14:46.359Z,1.00
2023-01-15T13:16:24.569Z,1.00
2023-01-15T13:17:54.679Z,1.00
2023-01-15T13:19:27.186Z,1.00
2023-01-15T13:20:46.223Z,1.00
2023-01-15T13:21:53.017Z,1.00
2023-01-15T13:23:42.642Z,1.00
2023-01-15T13:24:54.304Z,1.00
2023-01-15T13:26:08.137Z,1.00
2023-01-15T13:27:27.773Z,1.00
2023-01-15T13:28:58.978Z,1.00
2023-01-15T13:30:03.960Z,1.00
2023-01-15T13:31:31.935Z,1.00
2023-01-15T13:32:46.299Z,1.00
2023-01-15T13:33:54.070Z,1.00
2023-01-15T13:35:11.659Z,1.00
2023-01-15T13:36:27.678Z,1.00
2023-01-15T13:37:34.986Z,1.00
2023-01-15T13:38:43.740Z,1.00
2023-01-15T13:39:48.309Z,1.00
2023-01-15T13:40:54.585Z,1.00
2023-01-15T13:42:15.238Z,1.00
2023-01-15T13:43:39.923Z,1.00
2023-01-15T13:44:49.200Z,1.00
2023-01-15T13:45:51.596Z,1.00
2023-01-15T13:47:17.770Z,1.00
2023-01-15T13:48:37.353Z,1.00
2023-01-15T13:49:48.416Z,1.00
2023-01-15T13:50:57.934Z,1.00
2023-01-15T13:52:04.522Z,1.00
2023-01-15T13:53:10.983Z,1.00
2023-01-15T13:54:17.609Z,1.00
2023-01-15T13:55:19.447Z,1.00
2023-01-15T13:56:32.833Z,1.00
2023-01-15T13:57:37.194Z,1.00
2023-01-15T13:59:04.401Z,1.00
2023-01-15T14:00:27.607Z,1.00
2023-01-15T14:01:34.756Z,1.00
2023-01-15T14:02:39.057Z,1.00
2023-01-15T14:03:44.041Z,1.00
2023-01-15T14:04:46.106Z,1.00
2023-01-15T14:06:21.171Z,1.00
2023-01-15T14:07:43.255Z,1.00
2023-01-15T14:08:46.600Z,1.00
2023-01-15T14:09:48.374Z,1.00
2023-01-15T14:10:50.693Z,1.00
2023-01-15T14:11:55.509Z,1.00
2023-01-15T14:13:32.303Z,1.00
2023-01-15T14:14:57.689Z,1.00
2023-01-15T14:16:10.984Z,1.00
2023-01-15T14:17:23.003Z,1.00
2023-01-15T14:18:46.086Z,1.00
2023-01-15T14:20:11.579Z,1.00
2023-01-15T14:21:24.924Z,1.00
2023-01-15T14:22:40.591Z,1.00
2023-01-15T14:24:06.653Z,1.00
2023-01-15T14:25:21.615Z,1.00
2023-01-15T14:26:48.002Z,1.00
2023-01-15T14:28:05.448Z,1.00
2023-01-15T14:29:58.684Z,1.00
2023-01-15T14:31:14.847Z,1.00
2023-01-15T14:32:43.852Z,1.00
2023-01-15T14:34:05.176Z,1.00
2023-01-15T14:35:20.556Z,1.00
2023-01-15T14:36:38.531Z,1.00
2023-01-15T14:37:49.531Z,1.00
2023-01-15T14:38:56.866Z,1.00
2023-01-15T14:40:04.218Z,1.00
2023-01-15T14:41:07.394Z,1.00
2023-01-15T14:42:42.461Z,1.00
2023-01-15T14:43:49.854Z,1.00
2023-01-15T14:45:17.601Z,1.00
2023-01-15T14:46:28.234Z,1.00
2023-01-15T14:47:37.336Z,1.00
2023-01-15T14:48:39.803Z,1.00
2023-01-15T14:49:52.545Z,1.00
2023-01-15T14:50:55.014Z,1.00
2023-01-15T14:51:57.893Z,1.00
2023-01-15T14:53:10.815Z,1.00
2023-01-15T14:54:18.684Z,1.00
2023-01-15T14:55:23.024Z,1.00
2023-01-15T14:56:35.005Z,1.00
2023-01-15T14:57:37.394Z,1.00
2023-01-15T14:58:51.761Z,1.00
2023-01-15T14:59:58.516Z,1.00
2023-01-15T15:01:13.999Z,1.00
2023-01-15T15:02:24.043Z,1.00
2023-01-15T15:03:36.897Z,1.00
2023-01-15T15:04:51.353Z,1.00
2023-01-15T15:05:53.540Z,1.00
2023-01-15T15:06:58.183Z,1.00
2023-01-15T15:08:00.319Z,1.00
2023-01-15T15:09:05.556Z,1.00
2023-01-15T15:10:12.775Z,1.00
2023-01-15T15:11:52.325Z,1.00
2023-01-15T15:13:05.342Z,1.00
2023-01-15T15:14:09.806Z,1.00
2023-01-15T15:15:28.171Z,1.00
2023-01-15T15:16:33.924Z,1.00
2023-01-15T15:17:45.598Z,1.00